Aeroporto :
LOGIN :

Iscrizione | Disclaimer

   EN    FR    IT 

 










Sommario :    VFR   VFR Marginale   IFR   IFR Intensivo   IFR Molto Intensivo
Visibilità : 
Base nubi : 
>= 8 km
>= 3000ft
5 / 8 km
1000 / 3000 ft
1500m / 5 km
500 / 1000 ft
800 / 1500m
200 / 500 ft
< 800m
< 200 ft
Simboli :   Temporali  Nebbia  Neve Forte  Precipitazioni Forti  Vento > 20 kt
SIGMETs :   Varie  Temporali  Ghiacco  Turbolenza  Onda orograficha  Ceneri Vulcaniche






- Altitudine del aeroporto : 300 ft
- Codice IATA : MLA


LMML - Malta Luqa

ULTIMO METAR :
  • 301815Z 32006KT 9999 FEW020 10/09 Q1013 NOSIG

METARs OBSOLETI :
  • 301745Z 33008KT 9999 SCT020 11/09 Q1013 NOSIG
  • 301715Z 33010KT 9999 FEW020 12/09 Q1012 NOSIG
  • 301645Z 33008KT 9999 FEW018 13/09 Q1012 NOSIG
  • 301615Z 35009KT 9999 FEW017 12/09 Q1012 NOSIG
  • 301545Z 34009KT 9999 FEW016 13/09 Q1012 NOSIG

TAF TAF LMML
Valido dal 30 a 18 ore il 31 a 18 ore UTC


301700Z 3018/3118 32009KT 9999 SCT013
PROB30
TEMPO 3018/3103 BKN013
BECMG 3115/3118 25010KT



MetMap, La meteo Aeronautica in un colpo d'occhio ! - Copyright ORBIFLY Dicembre 2007 - Disclaimer

ORBIFLY MET'MAP TEAM :

Programmazione e sviluppo : Alexandra Zaïnal
Concezione : Baudouin d'Aumeries
Aiuto per la programmazione : Marc-Olivier Méhu
Supporto tecnico e logistico : Manuel Goepfert
Aiuto per la traduzione : Arnaldo La Scala

Contatto : metmap@orbifly.com




FONTI E CREDITI :

   NOAA